createdAt,value
2022-09-07T00:02:20.667Z,82.53
2022-09-07T00:05:04.303Z,82.63
2022-09-07T00:07:48.861Z,82.99
2022-09-07T00:10:31.986Z,83.08
2022-09-07T00:13:15.140Z,82.32
2022-09-07T00:15:58.760Z,82.40
2022-09-07T00:18:45.727Z,81.94
2022-09-07T00:21:29.828Z,80.97
2022-09-07T00:24:14.350Z,78.07
2022-09-07T00:26:57.885Z,78.93
2022-09-07T00:29:41.065Z,77.73
2022-09-07T00:32:25.506Z,76.66
2022-09-07T00:35:09.253Z,75.96
2022-09-07T00:37:52.497Z,77.27
2022-09-07T00:40:37.259Z,77.51
2022-09-07T00:43:31.694Z,78.56
2022-09-07T00:46:16.832Z,79.10
2022-09-07T00:49:04.347Z,78.58
2022-09-07T00:51:51.852Z,78.63
2022-09-07T00:54:39.532Z,77.40
2022-09-07T00:57:24.524Z,78.56
2022-09-07T01:00:12.200Z,78.02
2022-09-07T01:02:58.308Z,77.75
2022-09-07T01:05:44.816Z,76.63
2022-09-07T01:08:28.651Z,76.76
2022-09-07T01:11:12.611Z,76.74
2022-09-07T01:13:58.273Z,76.35
2022-09-07T01:16:53.867Z,74.98
2022-09-07T01:20:25.035Z,74.62
2022-09-07T01:23:31.372Z,75.34
2022-09-07T01:26:44.832Z,75.55
2022-09-07T01:29:37.033Z,75.28
2022-09-07T01:32:32.018Z,76.51
2022-09-07T01:35:23.629Z,75.91
2022-09-07T01:38:18.693Z,76.50
2022-09-07T01:41:05.706Z,76.92
2022-09-07T01:43:55.337Z,76.51
2022-09-07T01:46:45.554Z,75.90
2022-09-07T01:49:35.765Z,76.15
2022-09-07T01:52:29.031Z,76.68
2022-09-07T01:55:18.258Z,76.54
2022-09-07T01:58:08.745Z,76.60
2022-09-07T02:00:56.937Z,77.40
2022-09-07T02:03:45.883Z,77.82
2022-09-07T02:06:37.329Z,77.69
2022-09-07T02:09:27.854Z,77.70
2022-09-07T02:12:16.129Z,77.75
2022-09-07T02:15:03.847Z,77.82
2022-09-07T02:17:51.455Z,78.01
2022-09-07T02:20:41.415Z,78.58
2022-09-07T02:23:29.589Z,78.49
2022-09-07T02:26:19.166Z,76.85
2022-09-07T02:29:02.290Z,77.66
2022-09-07T02:31:45.393Z,76.13
2022-09-07T02:34:28.638Z,75.74
2022-09-07T02:37:16.329Z,76.26
2022-09-07T02:40:00.432Z,77.64
2022-09-07T02:42:45.067Z,76.74
2022-09-07T02:45:45.952Z,77.64
2022-09-07T02:48:37.450Z,77.19
2022-09-07T02:51:27.816Z,76.49
2022-09-07T02:54:39.089Z,76.66
2022-09-07T02:57:33.456Z,77.03
2022-09-07T03:00:20.904Z,77.05
2022-09-07T03:03:17.738Z,75.11
2022-09-07T03:06:03.113Z,77.22
2022-09-07T03:08:50.235Z,75.53
2022-09-07T03:11:37.753Z,76.89
2022-09-07T03:14:23.007Z,76.70
2022-09-07T03:17:06.242Z,76.93
2022-09-07T03:19:49.350Z,76.81
2022-09-07T03:22:34.951Z,77.25
2022-09-07T03:25:19.171Z,76.52
2022-09-07T03:28:04.018Z,74.74
2022-09-07T03:30:47.639Z,73.45
2022-09-07T03:33:30.865Z,73.22
2022-09-07T03:36:14.065Z,73.33
2022-09-07T03:38:58.769Z,72.87
2022-09-07T03:41:41.984Z,72.68
2022-09-07T03:44:26.461Z,72.45
2022-09-07T03:47:09.569Z,72.52
2022-09-07T03:49:52.606Z,72.04
2022-09-07T03:52:35.919Z,72.19
2022-09-07T03:55:19.085Z,72.28
2022-09-07T03:58:02.171Z,72.08
2022-09-07T04:00:46.674Z,71.33
2022-09-07T04:03:30.274Z,71.52
2022-09-07T04:06:14.031Z,72.14
2022-09-07T04:08:57.448Z,71.11
2022-09-07T04:11:40.569Z,71.25
2022-09-07T04:14:23.722Z,72.35
2022-09-07T04:17:08.284Z,73.56
2022-09-07T04:19:52.464Z,73.41
2022-09-07T04:22:35.581Z,73.34
2022-09-07T04:25:18.972Z,73.49
2022-09-07T04:28:02.093Z,74.32
2022-09-07T04:30:45.505Z,73.49
2022-09-07T04:33:32.157Z,73.92
2022-09-07T04:36:17.484Z,74.85
2022-09-07T04:39:01.980Z,74.58
2022-09-07T04:41:45.086Z,75.29
2022-09-07T04:44:28.162Z,74.91
2022-09-07T04:47:11.336Z,74.70
2022-09-07T04:49:55.990Z,74.31
2022-09-07T04:52:39.128Z,73.92
2022-09-07T04:55:22.326Z,73.61
2022-09-07T04:58:05.493Z,73.49
2022-09-07T05:00:48.602Z,73.92
2022-09-07T05:03:33.095Z,73.86
2022-09-07T05:06:19.512Z,73.30
2022-09-07T05:09:02.718Z,70.90
2022-09-07T05:11:45.823Z,68.82
2022-09-07T05:14:29.111Z,69.26
2022-09-07T05:17:12.243Z,67.85
2022-09-07T05:19:55.365Z,68.99
2022-09-07T05:22:41.218Z,66.74
2022-09-07T05:25:24.494Z,67.25
2022-09-07T05:28:07.645Z,67.01
2022-09-07T05:37:01.339Z,66.47
2022-09-07T05:39:45.886Z,65.91
2022-09-07T05:42:29.035Z,67.51
2022-09-07T05:45:12.876Z,66.79
2022-09-07T05:47:56.501Z,67.00
2022-09-07T05:50:39.560Z,65.39
2022-09-07T05:53:23.094Z,65.19
2022-09-07T05:56:08.979Z,63.71
2022-09-07T05:58:52.092Z,65.51
2022-09-07T06:01:36.290Z,64.54
2022-09-07T06:04:19.707Z,62.14
2022-09-07T06:07:21.110Z,59.05
2022-09-07T06:13:10.643Z,55.31
2022-09-07T06:15:53.740Z,54.72
2022-09-07T06:18:38.674Z,49.04
2022-09-07T06:21:23.406Z,41.59
2022-09-07T06:24:07.572Z,36.80
2022-09-07T06:26:50.684Z,33.72
2022-09-07T06:29:35.811Z,32.25
2022-09-07T06:35:22.035Z,25.96
2022-09-07T06:38:05.217Z,24.81
2022-09-07T06:40:48.795Z,25.31
2022-09-07T06:43:32.223Z,23.43
2022-09-07T06:49:20.822Z,23.56
2022-09-07T06:52:04.519Z,23.08
2022-09-07T06:55:02.869Z,25.69
2022-09-07T06:57:46.128Z,22.39
2022-09-07T07:00:29.290Z,25.09
2022-09-07T07:03:13.979Z,23.23
2022-09-07T07:05:58.459Z,20.73
2022-09-07T07:08:42.166Z,19.37
2022-09-07T07:11:25.484Z,22.06
2022-09-07T07:14:08.674Z,19.98
2022-09-07T07:16:51.746Z,19.82
2022-09-07T07:19:36.487Z,17.77
2022-09-07T07:22:45.030Z,20.35
2022-09-07T07:25:22.747Z,18.23
2022-09-07T07:31:12.934Z,15.83
2022-09-07T07:33:56.388Z,14.19
2022-09-07T07:36:40.851Z,13.29
2022-09-07T07:42:27.496Z,17.66
2022-09-07T07:48:15.168Z,18.79
2022-09-07T07:51:01.412Z,17.69
2022-09-07T07:53:48.919Z,17.21
2022-09-07T07:56:31.975Z,15.49
2022-09-07T07:59:15.864Z,16.26
2022-09-07T08:02:04.422Z,19.92
2022-09-07T08:04:48.127Z,18.67
2022-09-07T08:07:31.236Z,17.45
2022-09-07T08:10:15.806Z,15.79
2022-09-07T08:12:58.964Z,14.67
2022-09-07T08:15:44.668Z,14.52
2022-09-07T08:18:28.036Z,14.16
2022-09-07T08:21:13.360Z,13.74
2022-09-07T08:24:00.213Z,14.03
2022-09-07T08:26:44.863Z,14.93
2022-09-07T08:29:31.242Z,15.37
2022-09-07T08:32:16.724Z,17.64
2022-09-07T08:35:00.302Z,18.55
2022-09-07T08:37:43.311Z,18.94
2022-09-07T08:40:26.306Z,14.84
2022-09-07T08:43:19.233Z,12.66
2022-09-07T08:46:11.847Z,11.95
2022-09-07T08:48:56.540Z,13.54
2022-09-07T08:51:46.494Z,12.13
2022-09-07T08:54:29.660Z,13.36
2022-09-07T08:57:23.436Z,12.75
2022-09-07T09:00:14.466Z,11.85
2022-09-07T09:06:09.460Z,10.75
2022-09-07T09:09:12.139Z,9.82
2022-09-07T09:12:06.968Z,11.02
2022-09-07T09:15:02.463Z,12.65
2022-09-07T09:17:53.563Z,11.92
2022-09-07T09:20:43.142Z,10.78
2022-09-07T09:23:28.214Z,9.72
2022-09-07T09:26:17.647Z,10.00
2022-09-07T09:29:13.721Z,9.18
2022-09-07T09:31:57.114Z,10.45
2022-09-07T09:34:41.793Z,11.57
2022-09-07T09:37:34.781Z,8.81
2022-09-07T09:40:24.195Z,11.67
2022-09-07T09:43:19.224Z,11.97
2022-09-07T09:46:18.233Z,11.92
2022-09-07T09:49:04.568Z,12.35
2022-09-07T09:55:03.307Z,12.72
2022-09-07T10:04:21.523Z,11.69
2022-09-07T10:07:28.536Z,11.10
2022-09-07T10:10:17.614Z,10.70
2022-09-07T10:13:01.061Z,10.13
2022-09-07T10:15:44.272Z,10.78
2022-09-07T10:18:34.789Z,8.62
2022-09-07T10:21:27.742Z,10.34
2022-09-07T10:24:17.276Z,10.32
2022-09-07T10:27:00.824Z,9.98
2022-09-07T10:29:43.849Z,9.28
2022-09-07T10:32:43.896Z,9.43
2022-09-07T10:35:30.420Z,9.04
2022-09-07T10:38:30.971Z,8.86
2022-09-07T10:41:18.338Z,8.41
2022-09-07T10:44:03.172Z,9.33
2022-09-07T10:46:57.034Z,8.96
2022-09-07T10:50:21.831Z,10.31
2022-09-07T10:52:56.768Z,11.09
2022-09-07T10:55:43.266Z,11.29
2022-09-07T11:01:53.813Z,10.64
2022-09-07T11:04:49.305Z,12.05
2022-09-07T11:07:51.948Z,11.55
2022-09-07T11:10:42.210Z,10.99
2022-09-07T11:13:31.477Z,9.99
2022-09-07T11:19:41.041Z,13.36
2022-09-07T11:22:33.352Z,18.08
2022-09-07T11:25:36.634Z,20.21
2022-09-07T11:28:26.411Z,22.70
2022-09-07T11:31:20.891Z,26.03
2022-09-07T11:34:26.510Z,26.14
2022-09-07T11:37:15.187Z,28.74
2022-09-07T11:40:05.070Z,30.74
2022-09-07T11:42:53.688Z,31.54
2022-09-07T11:45:43.334Z,31.66
2022-09-07T11:48:34.803Z,31.55
2022-09-07T11:51:26.680Z,31.18
2022-09-07T11:54:40.585Z,32.69
2022-09-07T11:57:40.761Z,32.70
2022-09-07T12:00:29.660Z,32.66
2022-09-07T12:03:32.771Z,33.84
2022-09-07T12:06:42.322Z,35.35
2022-09-07T12:09:41.888Z,32.89
2022-09-07T12:12:46.537Z,34.06
2022-09-07T12:15:37.964Z,33.70
2022-09-07T12:18:41.183Z,34.01
2022-09-07T12:21:40.585Z,34.21
2022-09-07T12:24:42.272Z,34.03
2022-09-07T12:27:39.865Z,33.62
2022-09-07T12:30:55.409Z,33.84
2022-09-07T12:33:41.628Z,34.94
2022-09-07T12:36:50.811Z,35.54
2022-09-07T12:39:35.143Z,35.06
2022-09-07T12:42:32.730Z,34.89
2022-09-07T12:45:50.594Z,34.89
2022-09-07T12:48:46.791Z,33.70
2022-09-07T12:54:59.696Z,34.67
2022-09-07T12:58:02.911Z,33.82
2022-09-07T13:00:58.125Z,34.73
2022-09-07T13:04:20.474Z,34.39
2022-09-07T13:07:36.862Z,34.75
2022-09-07T13:10:30.561Z,33.68
2022-09-07T13:14:02.778Z,35.00
2022-09-07T13:16:31.374Z,34.87
2022-09-07T13:19:37.475Z,34.48
2022-09-07T13:22:53.589Z,33.13
2022-09-07T13:25:50.220Z,34.90
2022-09-07T13:28:52.050Z,33.81
2022-09-07T13:31:47.018Z,35.16
2022-09-07T13:35:05.020Z,34.48
2022-09-07T13:37:53.737Z,33.47
2022-09-07T13:40:40.499Z,35.33
2022-09-07T13:43:25.341Z,34.81
2022-09-07T13:46:18.055Z,35.37
2022-09-07T13:49:07.811Z,34.76
2022-09-07T13:51:59.711Z,36.45
2022-09-07T13:54:58.651Z,35.41
2022-09-07T13:57:51.428Z,35.61
2022-09-07T14:00:35.679Z,35.36
2022-09-07T14:03:18.887Z,35.24
2022-09-07T14:06:35.628Z,35.30
2022-09-07T14:09:22.951Z,35.36
2022-09-07T14:12:15.688Z,35.62
2022-09-07T14:15:10.305Z,35.70
2022-09-07T14:18:04.770Z,35.83
2022-09-07T14:20:50.648Z,36.08
2022-09-07T14:23:35.747Z,36.16
2022-09-07T14:26:23.141Z,37.15
2022-09-07T14:29:06.147Z,37.06
2022-09-07T14:31:49.474Z,37.25
2022-09-07T14:34:35.934Z,37.98
2022-09-07T14:37:21.855Z,37.88
2022-09-07T14:40:06.394Z,38.08
2022-09-07T14:42:52.304Z,37.76
2022-09-07T14:45:37.525Z,37.39
2022-09-07T14:48:31.478Z,37.91
2022-09-07T14:51:34.829Z,38.42
2022-09-07T14:54:22.139Z,38.42
2022-09-07T14:57:33.636Z,38.78
2022-09-07T15:00:30.928Z,39.05
2022-09-07T15:03:28.847Z,38.15
2022-09-07T15:07:00.965Z,38.15
2022-09-07T15:09:29.699Z,38.33
2022-09-07T15:12:32.973Z,38.70
2022-09-07T15:15:26.705Z,38.76
2022-09-07T15:18:43.536Z,38.56
2022-09-07T15:21:29.135Z,38.64
2022-09-07T15:24:12.805Z,39.03
2022-09-07T15:27:03.625Z,39.43
2022-09-07T15:29:47.228Z,39.37
2022-09-07T15:32:31.734Z,40.40
2022-09-07T15:35:15.943Z,40.17
2022-09-07T15:38:04.473Z,40.38
2022-09-07T15:41:18.098Z,40.64
2022-09-07T15:43:54.112Z,41.22
2022-09-07T15:46:37.835Z,41.67
2022-09-07T15:49:22.427Z,41.03
2022-09-07T15:52:06.296Z,41.18
2022-09-07T15:54:50.055Z,41.11
2022-09-07T15:57:51.176Z,41.09
2022-09-07T16:00:35.888Z,41.67
2022-09-07T16:03:19.097Z,41.49
2022-09-07T16:06:09.014Z,41.70
2022-09-07T16:08:52.916Z,41.82
2022-09-07T16:11:36.054Z,41.85
2022-09-07T16:14:21.882Z,42.07
2022-09-07T16:20:09.090Z,42.01
2022-09-07T16:25:59.968Z,42.75
2022-09-07T16:28:45.095Z,43.19
2022-09-07T16:31:31.162Z,43.52
2022-09-07T16:34:21.136Z,44.08
2022-09-07T16:37:04.321Z,44.17
2022-09-07T16:39:49.758Z,44.56
2022-09-07T16:42:37.406Z,45.00
2022-09-07T16:48:24.330Z,45.69
2022-09-07T16:51:08.126Z,45.75
2022-09-07T16:53:52.690Z,46.16
2022-09-07T16:56:39.714Z,46.57
2022-09-07T16:59:26.878Z,46.63
2022-09-07T17:02:18.549Z,46.98
2022-09-07T17:05:01.709Z,46.81
2022-09-07T17:07:44.776Z,46.97
2022-09-07T17:10:28.987Z,47.07
2022-09-07T17:13:13.579Z,47.71
2022-09-07T17:16:02.948Z,47.80
2022-09-07T17:21:50.164Z,48.08
2022-09-07T17:24:33.474Z,47.34
2022-09-07T17:27:16.484Z,47.92
2022-09-07T17:30:00.904Z,48.15
2022-09-07T17:32:44.078Z,48.16
2022-09-07T17:35:27.135Z,48.40
2022-09-07T17:41:18.521Z,49.27
2022-09-07T17:44:01.775Z,49.19
2022-09-07T17:46:46.588Z,49.76
2022-09-07T17:52:46.222Z,50.57
2022-09-07T17:55:32.777Z,50.26
2022-09-07T17:58:16.171Z,51.01
2022-09-07T18:01:03.668Z,51.39
2022-09-07T18:03:52.458Z,51.65
2022-09-07T18:06:36.192Z,51.12
2022-09-07T18:09:20.907Z,51.61
2022-09-07T18:12:05.837Z,51.36
2022-09-07T18:14:49.856Z,51.62
2022-09-07T18:17:33.057Z,51.30
2022-09-07T18:20:18.987Z,51.43
2022-09-07T18:23:02.461Z,51.57
2022-09-07T18:25:46.442Z,50.76
2022-09-07T18:31:35.666Z,51.54
2022-09-07T18:34:19.321Z,51.96
2022-09-07T18:37:03.893Z,51.64
2022-09-07T18:39:48.865Z,51.69
2022-09-07T18:42:34.385Z,51.66
2022-09-07T18:45:29.053Z,51.29
2022-09-07T18:48:17.310Z,51.63
2022-09-07T18:51:00.860Z,51.90
2022-09-07T18:53:45.506Z,51.17
2022-09-07T18:56:28.708Z,51.21
2022-09-07T18:59:15.332Z,51.90
2022-09-07T19:02:03.879Z,51.81
2022-09-07T19:07:53.774Z,52.66
2022-09-07T19:10:39.136Z,52.81
2022-09-07T19:13:22.456Z,52.45
2022-09-07T19:16:07.206Z,52.85
2022-09-07T19:19:00.524Z,53.97
2022-09-07T19:21:44.490Z,54.00
2022-09-07T19:24:30.493Z,55.19
2022-09-07T19:27:15.046Z,55.31
2022-09-07T19:29:58.522Z,55.41
2022-09-07T19:32:41.776Z,55.47
2022-09-07T19:35:25.102Z,55.68
2022-09-07T19:38:08.230Z,55.55
2022-09-07T19:40:57.585Z,56.61
2022-09-07T19:43:42.742Z,56.58
2022-09-07T19:46:26.082Z,56.84
2022-09-07T19:49:12.165Z,57.55
2022-09-07T19:51:55.258Z,58.20
2022-09-07T19:54:38.470Z,57.23
2022-09-07T19:57:21.632Z,56.53
2022-09-07T20:00:07.778Z,56.03
2022-09-07T20:02:52.347Z,55.73
2022-09-07T20:05:38.986Z,55.74
2022-09-07T20:08:22.693Z,56.83
2022-09-07T20:11:08.431Z,57.47
2022-09-07T20:13:52.323Z,56.31
2022-09-07T20:16:39.397Z,56.24
2022-09-07T20:19:22.603Z,56.03
2022-09-07T20:22:08.044Z,56.40
2022-09-07T20:24:51.282Z,56.58
2022-09-07T20:27:35.897Z,56.85
2022-09-07T20:30:19.250Z,57.25
2022-09-07T20:33:04.020Z,58.66
2022-09-07T20:35:47.994Z,59.03
2022-09-07T20:38:31.233Z,58.95
2022-09-07T20:41:17.168Z,59.44
2022-09-07T20:44:01.979Z,59.73
2022-09-07T20:46:45.377Z,59.63
2022-09-07T20:49:30.072Z,59.91
2022-09-07T20:52:13.240Z,59.73
2022-09-07T20:54:56.314Z,59.46
2022-09-07T20:57:39.413Z,59.65
2022-09-07T21:00:22.547Z,60.36
2022-09-07T21:03:05.661Z,60.61
2022-09-07T21:05:50.599Z,61.14
2022-09-07T21:08:37.194Z,60.66
2022-09-07T21:11:22.485Z,60.67
2022-09-07T21:14:07.617Z,60.53
2022-09-07T21:16:50.742Z,60.85
2022-09-07T21:19:33.895Z,61.76
2022-09-07T21:22:19.322Z,60.93
2022-09-07T21:25:02.954Z,61.24
2022-09-07T21:27:47.448Z,61.34
2022-09-07T21:30:31.555Z,62.15
2022-09-07T21:33:16.139Z,62.06
2022-09-07T21:36:05.010Z,61.77
2022-09-07T21:38:50.130Z,62.74
2022-09-07T21:41:33.274Z,62.05
2022-09-07T21:44:17.418Z,62.84
2022-09-07T21:47:01.397Z,63.10
2022-09-07T21:49:44.592Z,63.41
2022-09-07T21:52:27.817Z,63.64
2022-09-07T21:55:12.487Z,63.39
2022-09-07T21:57:55.579Z,62.80
2022-09-07T22:00:39.627Z,63.07
2022-09-07T22:03:24.137Z,63.89
2022-09-07T22:06:07.277Z,62.78
2022-09-07T22:08:50.610Z,63.81
2022-09-07T22:11:35.373Z,64.99
2022-09-07T22:14:18.561Z,64.83
2022-09-07T22:17:02.526Z,65.19
2022-09-07T22:19:45.910Z,65.06
2022-09-07T22:22:29.243Z,65.45
2022-09-07T22:25:12.515Z,65.37
2022-09-07T22:27:57.217Z,65.64
2022-09-07T22:30:40.437Z,66.22
2022-09-07T22:33:23.891Z,66.63
2022-09-07T22:36:11.929Z,66.72
2022-09-07T22:38:56.812Z,66.78
2022-09-07T22:41:40.799Z,63.80
2022-09-07T22:44:26.904Z,63.88
2022-09-07T22:47:11.037Z,63.57
2022-09-07T22:49:54.064Z,62.78
2022-09-07T22:52:37.261Z,61.49
2022-09-07T22:55:20.304Z,63.05
2022-09-07T22:58:03.433Z,63.01
2022-09-07T23:00:48.291Z,63.69
2022-09-07T23:03:33.046Z,64.09
2022-09-07T23:06:21.807Z,64.75
2022-09-07T23:09:07.416Z,64.99
2022-09-07T23:11:50.575Z,66.28
2022-09-07T23:14:33.830Z,66.41
2022-09-07T23:17:18.352Z,65.94
2022-09-07T23:20:01.502Z,65.75
2022-09-07T23:22:45.187Z,66.46
2022-09-07T23:25:30.031Z,66.60
2022-09-07T23:28:13.949Z,66.56
2022-09-07T23:30:57.332Z,67.40
2022-09-07T23:33:41.879Z,67.63
2022-09-07T23:36:25.521Z,68.03
2022-09-07T23:39:11.136Z,68.12
2022-09-07T23:41:54.281Z,68.17
2022-09-07T23:44:37.465Z,68.22
2022-09-07T23:47:20.561Z,68.67
2022-09-07T23:50:05.630Z,68.73
2022-09-07T23:52:48.748Z,68.76
2022-09-07T23:55:31.956Z,69.04
2022-09-07T23:58:15.153Z,68.24
